MMAS/AGU METAR and TAF weather

Enter ICAO airport designator
Station Type Date Time Source
MMAS METAR 2019/10/20 17:41 UTC NOAA

MMAS 201741Z 20008KT 10SM SCT025 BKN030TCU 24/13 A3017 RMK SLP/// 8/200 TCU FRMG ARND


Station Type Date Time Source
MMAS Decoded METAR 2019/10/20 17:41 UTC NOAA

Aguascalientes, Ags., Mexico (MMAS) 21-53N 102-18W
Oct 20, 2019 - 01:41 PM EDT / 2019.10.20 1741 UTC
Wind: from the SSW (200 degrees) at 9 MPH (8 KT):0
Visibility: 10 mile(s):0
Sky conditions: mostly cloudy
Weather: Towering cumulus clouds observed
Temperature: 75 F (24 C)
Dew Point: 55 F (13 C)
Relative Humidity: 50%
Pressure (altimeter): 30.17 in. Hg (1021 hPa)
ob: MMAS 201741Z 20008KT 10SM SCT025 BKN030TCU 24/13 A3017 RMK SLP/// 8/200 TCU FRMG ARND
cycle: 17

Station Type Date Time Source
MMAS TAF 2019/10/20 18:27 UTC NOAA

TAF TAF MMAS 201726Z 2018/2118 20010KT P6SM BKN025 BKN080
TEMPO 2021/2101 4SM TSRA BKN020CB
FM210200 00000KT 5SM RA BKN020 OVC080
FM210600 20010KT P6SM SCT015 BKN100 BKN250
TEMPO 2112/2116 BKN015

Example: see airport list